createdAt,value
2023-02-06T00:01:32.652Z,79.59
2023-02-06T00:04:00.340Z,79.60
2023-02-06T00:06:27.992Z,80.13
2023-02-06T00:08:55.782Z,80.35
2023-02-06T00:11:23.808Z,80.46
2023-02-06T00:13:51.898Z,80.79
2023-02-06T00:16:31.636Z,80.81
2023-02-06T00:19:00.116Z,80.45
2023-02-06T00:21:29.258Z,81.01
2023-02-06T00:24:01.300Z,81.22
2023-02-06T00:26:29.770Z,81.19
2023-02-06T00:28:57.426Z,81.26
2023-02-06T00:31:25.547Z,81.47
2023-02-06T00:33:53.081Z,81.61
2023-02-06T00:36:20.770Z,81.48
2023-02-06T00:38:48.399Z,81.89
2023-02-06T00:41:16.026Z,82.14
2023-02-06T00:43:43.701Z,82.16
2023-02-06T00:46:11.747Z,81.73
2023-02-06T00:48:39.386Z,82.16
2023-02-06T00:51:06.979Z,82.54
2023-02-06T00:53:37.571Z,82.35
2023-02-06T00:56:05.278Z,82.60
2023-02-06T00:58:32.810Z,82.57
2023-02-06T01:01:00.525Z,82.38
2023-02-06T01:03:28.133Z,82.50
2023-02-06T01:05:55.771Z,82.77
2023-02-06T01:08:23.412Z,82.82
2023-02-06T01:10:52.006Z,83.04
2023-02-06T01:13:19.559Z,83.02
2023-02-06T01:15:48.442Z,83.08
2023-02-06T01:18:17.135Z,83.00
2023-02-06T01:20:44.866Z,82.61
2023-02-06T01:23:12.469Z,82.94
2023-02-06T01:25:40.026Z,83.09
2023-02-06T01:28:07.676Z,83.10
2023-02-06T01:30:35.289Z,83.14
2023-02-06T01:33:02.841Z,83.24
2023-02-06T01:35:30.428Z,82.90
2023-02-06T01:37:58.045Z,83.02
2023-02-06T01:40:25.695Z,83.71
2023-02-06T01:42:53.282Z,83.66
2023-02-06T01:45:32.682Z,83.51
2023-02-06T01:48:05.887Z,83.09
2023-02-06T01:50:36.174Z,83.53
2023-02-06T01:53:06.101Z,83.55
2023-02-06T01:55:38.406Z,83.83
2023-02-06T01:58:07.615Z,83.55
2023-02-06T02:00:35.952Z,83.68
2023-02-06T02:03:04.843Z,84.07
2023-02-06T02:05:34.229Z,83.34
2023-02-06T02:08:16.642Z,83.70
2023-02-06T02:10:44.782Z,83.61
2023-02-06T02:13:12.469Z,83.79
2023-02-06T02:15:59.160Z,83.91
2023-02-06T02:18:42.093Z,84.05
2023-02-06T02:21:31.328Z,84.63
2023-02-06T02:24:20.910Z,84.18
2023-02-06T02:27:21.854Z,83.97
2023-02-06T02:30:25.087Z,84.33
2023-02-06T02:33:14.396Z,83.91
2023-02-06T02:35:50.487Z,84.70
2023-02-06T02:38:30.409Z,84.34
2023-02-06T02:41:08.589Z,84.41
2023-02-06T02:43:39.382Z,83.90
2023-02-06T02:46:35.109Z,84.37
2023-02-06T02:49:13.889Z,84.07
2023-02-06T02:51:42.896Z,84.30
2023-02-06T02:54:10.708Z,83.74
2023-02-06T02:56:39.205Z,83.87
2023-02-06T02:59:24.236Z,83.88
2023-02-06T03:01:59.309Z,84.33
2023-02-06T03:04:51.289Z,84.12
2023-02-06T03:07:44.560Z,83.83
2023-02-06T03:10:18.867Z,84.25
2023-02-06T03:12:57.073Z,83.98
2023-02-06T03:15:38.197Z,83.59
2023-02-06T03:18:12.593Z,83.96
2023-02-06T03:20:44.564Z,83.80
2023-02-06T03:23:17.667Z,84.39
2023-02-06T03:25:47.768Z,84.52
2023-02-06T03:28:24.122Z,84.46
2023-02-06T03:30:56.586Z,84.17
2023-02-06T03:33:30.629Z,84.42
2023-02-06T03:35:59.029Z,84.82
2023-02-06T03:38:28.320Z,84.68
2023-02-06T03:40:58.051Z,84.65
2023-02-06T03:43:28.751Z,84.41
2023-02-06T03:46:00.808Z,84.99
2023-02-06T03:48:31.690Z,84.60
2023-02-06T03:51:03.661Z,84.45
2023-02-06T03:53:35.298Z,84.70
2023-02-06T03:56:09.859Z,84.92
2023-02-06T03:58:37.674Z,84.83
2023-02-06T04:01:06.942Z,84.79
2023-02-06T04:03:34.971Z,84.65
2023-02-06T04:06:03.041Z,84.53
2023-02-06T04:08:30.582Z,85.13
2023-02-06T04:10:58.246Z,84.09
2023-02-06T04:13:25.924Z,84.38
2023-02-06T04:15:53.427Z,84.58
2023-02-06T04:18:21.008Z,84.53
2023-02-06T04:20:48.568Z,84.45
2023-02-06T04:23:19.008Z,84.71
2023-02-06T04:25:47.460Z,84.65
2023-02-06T04:28:15.176Z,84.49
2023-02-06T04:30:42.946Z,84.57
2023-02-06T04:33:10.670Z,84.50
2023-02-06T04:35:38.327Z,84.46
2023-02-06T04:38:05.962Z,84.52
2023-02-06T04:40:33.606Z,84.60
2023-02-06T04:43:01.235Z,84.74
2023-02-06T04:45:28.833Z,84.89
2023-02-06T04:47:58.468Z,84.59
2023-02-06T04:50:31.372Z,85.00
2023-02-06T04:52:59.273Z,84.82
2023-02-06T04:55:26.843Z,85.00
2023-02-06T04:57:54.481Z,85.17
2023-02-06T05:00:22.152Z,85.13
2023-02-06T05:02:49.807Z,85.25
2023-02-06T05:05:17.660Z,85.28
2023-02-06T05:07:45.567Z,85.17
2023-02-06T05:10:13.234Z,84.93
2023-02-06T05:12:41.280Z,84.99
2023-02-06T05:15:09.334Z,85.32
2023-02-06T05:17:37.191Z,84.78
2023-02-06T05:20:05.659Z,85.09
2023-02-06T05:22:33.230Z,85.28
2023-02-06T05:25:00.932Z,84.80
2023-02-06T05:27:28.548Z,84.85
2023-02-06T05:29:56.068Z,84.75
2023-02-06T05:32:23.606Z,85.23
2023-02-06T05:34:51.180Z,85.05
2023-02-06T05:37:18.767Z,85.40
2023-02-06T05:39:46.398Z,85.15
2023-02-06T05:42:14.012Z,85.29
2023-02-06T05:44:41.594Z,85.30
2023-02-06T05:47:09.175Z,85.06
2023-02-06T05:49:36.669Z,85.20
2023-02-06T05:52:04.498Z,85.16
2023-02-06T05:54:32.126Z,84.80
2023-02-06T05:56:59.791Z,85.29
2023-02-06T05:59:27.346Z,84.91
2023-02-06T06:01:54.946Z,84.63
2023-02-06T06:04:22.578Z,84.80
2023-02-06T06:06:50.248Z,84.33
2023-02-06T06:09:17.817Z,83.93
2023-02-06T06:11:45.443Z,84.39
2023-02-06T06:14:13.328Z,84.35
2023-02-06T06:16:41.972Z,83.62
2023-02-06T06:19:09.918Z,83.87
2023-02-06T06:21:37.496Z,83.66
2023-02-06T06:24:05.213Z,83.58
2023-02-06T06:26:32.892Z,84.24
2023-02-06T06:29:00.446Z,83.64
2023-02-06T06:31:28.109Z,83.56
2023-02-06T06:33:55.624Z,83.51
2023-02-06T06:36:23.246Z,84.15
2023-02-06T06:38:50.803Z,84.06
2023-02-06T06:41:18.492Z,83.74
2023-02-06T06:43:46.050Z,83.80
2023-02-06T06:46:13.650Z,84.48
2023-02-06T06:48:41.147Z,83.61
2023-02-06T06:51:08.729Z,84.00
2023-02-06T06:53:40.006Z,84.00
2023-02-06T06:56:10.742Z,84.66
2023-02-06T06:58:38.334Z,84.82
2023-02-06T07:01:06.384Z,84.20
2023-02-06T07:03:34.208Z,85.18
2023-02-06T07:06:01.707Z,84.48
2023-02-06T07:08:30.157Z,85.08
2023-02-06T07:10:58.132Z,84.77
2023-02-06T07:13:25.729Z,84.75
2023-02-06T07:15:53.253Z,84.25
2023-02-06T07:18:21.248Z,84.27
2023-02-06T07:20:48.778Z,84.81
2023-02-06T07:23:16.326Z,84.63
2023-02-06T07:25:43.877Z,84.35
2023-02-06T07:28:11.842Z,85.27
2023-02-06T07:30:39.648Z,84.45
2023-02-06T07:33:07.847Z,84.26
2023-02-06T07:35:35.764Z,84.71
2023-02-06T07:38:03.486Z,85.23
2023-02-06T07:40:43.972Z,84.85
2023-02-06T07:43:13.410Z,84.75
2023-02-06T07:45:41.392Z,84.52
2023-02-06T07:48:09.185Z,85.06
2023-02-06T07:50:36.984Z,85.05
2023-02-06T07:53:04.604Z,84.22
2023-02-06T07:55:32.168Z,84.45
2023-02-06T07:57:59.798Z,84.33
2023-02-06T08:00:27.430Z,84.08
2023-02-06T08:02:54.948Z,84.96
2023-02-06T08:05:22.479Z,84.97
2023-02-06T08:07:51.560Z,84.20
2023-02-06T08:10:19.161Z,84.62
2023-02-06T08:12:46.781Z,84.42
2023-02-06T08:15:14.436Z,84.46
2023-02-06T08:17:44.785Z,84.14
2023-02-06T08:20:12.907Z,84.80
2023-02-06T08:22:40.760Z,84.18
2023-02-06T08:25:09.432Z,84.55
2023-02-06T08:27:36.943Z,84.33
2023-02-06T08:30:05.001Z,84.40
2023-02-06T08:32:35.112Z,84.69
2023-02-06T08:35:02.781Z,84.54
2023-02-06T08:37:31.907Z,84.14
2023-02-06T08:39:59.610Z,84.82
2023-02-06T08:42:27.177Z,84.92
2023-02-06T08:44:55.122Z,84.55
2023-02-06T08:47:22.748Z,84.86
2023-02-06T08:49:51.435Z,84.77
2023-02-06T08:52:19.106Z,83.77
2023-02-06T08:54:46.687Z,83.53
2023-02-06T08:57:14.243Z,83.68
2023-02-06T08:59:41.837Z,84.24
2023-02-06T09:02:11.531Z,84.22
2023-02-06T09:04:39.181Z,84.21
2023-02-06T09:07:06.843Z,84.25
2023-02-06T09:09:34.467Z,83.71
2023-02-06T09:12:03.966Z,83.78
2023-02-06T09:14:32.383Z,83.61
2023-02-06T09:17:00.018Z,83.11
2023-02-06T09:19:27.631Z,83.34
2023-02-06T09:21:55.515Z,83.23
2023-02-06T09:24:23.223Z,83.04
2023-02-06T09:26:59.437Z,82.83
2023-02-06T09:29:30.167Z,82.69
2023-02-06T09:31:57.910Z,82.63
2023-02-06T09:34:26.276Z,82.24
2023-02-06T09:36:57.958Z,82.41
2023-02-06T09:39:25.819Z,82.34
2023-02-06T09:42:26.127Z,82.17
2023-02-06T09:45:08.692Z,81.70
2023-02-06T09:47:41.505Z,81.62
2023-02-06T09:50:27.212Z,81.81
2023-02-06T09:52:57.651Z,81.70
2023-02-06T09:55:57.934Z,81.35
2023-02-06T09:59:03.059Z,81.25
2023-02-06T10:01:38.721Z,80.75
2023-02-06T10:04:27.767Z,80.84
2023-02-06T10:07:14.176Z,81.07
2023-02-06T10:09:52.489Z,80.97
2023-02-06T10:12:25.985Z,81.17
2023-02-06T10:15:02.977Z,81.20
2023-02-06T10:17:51.532Z,80.80
2023-02-06T10:20:26.840Z,80.07
2023-02-06T10:26:12.532Z,80.43
2023-02-06T10:28:40.978Z,80.17
2023-02-06T10:31:37.161Z,79.91
2023-02-06T10:34:20.057Z,79.38
2023-02-06T10:37:17.504Z,80.08
2023-02-06T10:40:31.081Z,80.09
2023-02-06T10:43:06.739Z,80.06
2023-02-06T10:45:34.658Z,80.14
2023-02-06T10:48:39.152Z,80.25
2023-02-06T10:51:24.929Z,79.80
2023-02-06T10:54:00.894Z,79.89
2023-02-06T10:56:34.121Z,79.97
2023-02-06T10:59:07.560Z,79.53
2023-02-06T11:01:39.125Z,80.00
2023-02-06T11:04:21.557Z,79.55
2023-02-06T11:06:49.600Z,79.50
2023-02-06T11:09:17.347Z,79.80
2023-02-06T11:11:51.406Z,79.32
2023-02-06T11:14:25.140Z,79.60
2023-02-06T11:16:53.946Z,79.95
2023-02-06T11:19:27.269Z,79.21
2023-02-06T11:22:16.388Z,79.77
2023-02-06T11:25:07.952Z,79.21
2023-02-06T11:27:36.627Z,79.46
2023-02-06T11:30:22.235Z,79.25
2023-02-06T11:33:03.645Z,79.01
2023-02-06T11:35:47.899Z,79.19
2023-02-06T11:38:18.650Z,79.37
2023-02-06T11:41:01.438Z,79.11
2023-02-06T11:43:41.398Z,79.09
2023-02-06T11:46:26.955Z,79.85
2023-02-06T11:48:54.516Z,79.14
2023-02-06T11:51:24.628Z,79.38
2023-02-06T11:53:55.111Z,79.83
2023-02-06T11:56:22.908Z,79.29
2023-02-06T11:59:16.531Z,78.52
2023-02-06T12:01:46.822Z,79.15
2023-02-06T12:04:28.007Z,79.01
2023-02-06T12:07:03.035Z,78.95
2023-02-06T12:09:30.736Z,79.73
2023-02-06T12:12:16.977Z,78.98
2023-02-06T12:15:29.461Z,79.16
2023-02-06T12:18:00.741Z,79.52
2023-02-06T12:20:35.561Z,79.70
2023-02-06T12:23:21.351Z,79.19
2023-02-06T12:25:53.215Z,79.37
2023-02-06T12:28:32.836Z,79.56
2023-02-06T12:31:09.267Z,79.32
2023-02-06T12:33:47.793Z,79.77
2023-02-06T12:36:25.983Z,79.03
2023-02-06T12:39:02.889Z,78.75
2023-02-06T12:41:36.259Z,79.67
2023-02-06T12:44:21.730Z,78.78
2023-02-06T12:46:56.872Z,79.22
2023-02-06T12:49:41.180Z,78.52
2023-02-06T12:52:22.558Z,78.77
2023-02-06T12:55:11.725Z,78.24
2023-02-06T12:57:39.949Z,78.86
2023-02-06T13:00:38.208Z,78.85
2023-02-06T13:03:18.273Z,78.43
2023-02-06T13:05:49.370Z,78.84
2023-02-06T13:08:23.775Z,78.47
2023-02-06T13:11:03.304Z,78.80
2023-02-06T13:13:38.208Z,78.36
2023-02-06T13:16:07.881Z,78.90
2023-02-06T13:18:41.800Z,78.89
2023-02-06T13:21:18.555Z,78.30
2023-02-06T13:24:01.271Z,77.90
2023-02-06T13:26:51.692Z,78.02
2023-02-06T13:29:22.751Z,78.49
2023-02-06T13:31:50.398Z,78.06
2023-02-06T13:34:18.717Z,78.43
2023-02-06T13:36:50.607Z,78.95
2023-02-06T13:39:31.102Z,78.70
2023-02-06T13:42:22.080Z,78.28
2023-02-06T13:44:50.684Z,78.58
2023-02-06T13:47:34.979Z,78.39
2023-02-06T13:50:07.213Z,79.05
2023-02-06T13:53:19.950Z,78.83
2023-02-06T13:56:12.196Z,78.34
2023-02-06T13:58:52.291Z,78.44
2023-02-06T14:01:26.033Z,78.52
2023-02-06T14:03:54.685Z,79.04
2023-02-06T14:06:34.039Z,78.78
2023-02-06T14:09:20.362Z,77.62
2023-02-06T14:12:32.980Z,78.08
2023-02-06T14:15:10.842Z,78.34
2023-02-06T14:17:46.483Z,77.92
2023-02-06T14:20:44.295Z,78.29
2023-02-06T14:23:37.889Z,78.21
2023-02-06T14:26:39.012Z,78.44
2023-02-06T14:29:27.325Z,77.83
2023-02-06T14:32:01.041Z,78.26
2023-02-06T14:34:58.119Z,77.83
2023-02-06T14:38:21.715Z,77.81
2023-02-06T14:40:52.587Z,78.30
2023-02-06T14:43:24.833Z,78.59
2023-02-06T14:46:06.738Z,78.53
2023-02-06T14:48:48.159Z,77.73
2023-02-06T14:51:37.172Z,77.72
2023-02-06T14:54:27.600Z,78.73
2023-02-06T14:57:00.599Z,78.35
2023-02-06T14:59:28.965Z,78.18
2023-02-06T15:01:58.947Z,78.32
2023-02-06T15:04:29.681Z,78.38
2023-02-06T15:07:00.416Z,79.19
2023-02-06T15:09:31.110Z,77.99
2023-02-06T15:12:02.265Z,78.31
2023-02-06T15:14:35.271Z,79.00
2023-02-06T15:17:03.578Z,78.08
2023-02-06T15:19:37.658Z,77.99
2023-02-06T15:22:10.464Z,78.95
2023-02-06T15:24:45.185Z,78.63
2023-02-06T15:27:34.402Z,78.60
2023-02-06T15:30:09.840Z,79.00
2023-02-06T15:32:39.952Z,79.51
2023-02-06T15:35:33.061Z,78.60
2023-02-06T15:38:07.644Z,79.41
2023-02-06T15:40:42.866Z,79.39
2023-02-06T15:43:16.359Z,79.23
2023-02-06T15:45:45.138Z,79.83
2023-02-06T15:48:19.983Z,79.43
2023-02-06T15:51:04.016Z,79.26
2023-02-06T15:53:40.056Z,79.33
2023-02-06T15:56:19.597Z,79.69
2023-02-06T15:58:49.579Z,79.83
2023-02-06T16:01:20.040Z,80.15
2023-02-06T16:03:53.752Z,79.70
2023-02-06T16:06:22.369Z,79.46
2023-02-06T16:08:57.154Z,79.97
2023-02-06T16:11:46.381Z,79.83
2023-02-06T16:14:38.154Z,80.10
2023-02-06T16:17:25.205Z,80.50
2023-02-06T16:20:05.013Z,80.64
2023-02-06T16:22:37.809Z,79.88
2023-02-06T16:25:31.091Z,79.87
2023-02-06T16:27:59.697Z,80.34
2023-02-06T16:30:32.331Z,80.40
2023-02-06T16:33:11.843Z,80.33
2023-02-06T16:35:39.434Z,80.57
2023-02-06T16:38:10.364Z,80.20
2023-02-06T16:40:38.429Z,80.95
2023-02-06T16:43:11.013Z,80.54
2023-02-06T16:45:38.899Z,80.58
2023-02-06T16:48:11.856Z,80.58
2023-02-06T16:50:40.941Z,80.83
2023-02-06T16:53:19.505Z,80.67
2023-02-06T16:55:47.559Z,80.79
2023-02-06T16:58:21.828Z,80.68
2023-02-06T17:00:49.977Z,80.22
2023-02-06T17:03:18.038Z,79.70
2023-02-06T17:05:47.558Z,79.76
2023-02-06T17:08:20.626Z,80.64
2023-02-06T17:10:48.623Z,80.24
2023-02-06T17:13:20.187Z,80.53
2023-02-06T17:15:48.313Z,80.33
2023-02-06T17:18:17.907Z,80.25
2023-02-06T17:20:56.254Z,79.85
2023-02-06T17:23:24.017Z,79.96
2023-02-06T17:25:55.582Z,80.39
2023-02-06T17:28:23.253Z,80.38
2023-02-06T17:30:51.296Z,80.28
2023-02-06T17:33:19.045Z,79.91
2023-02-06T17:35:47.998Z,79.76
2023-02-06T17:38:15.888Z,79.73
2023-02-06T17:40:43.525Z,80.11
2023-02-06T17:43:11.321Z,80.00
2023-02-06T17:45:40.024Z,79.95
2023-02-06T17:48:08.897Z,80.06
2023-02-06T17:50:38.067Z,79.91
2023-02-06T17:53:07.127Z,80.23
2023-02-06T17:55:35.949Z,80.63
2023-02-06T17:58:04.316Z,80.45
2023-02-06T18:00:32.206Z,80.31
2023-02-06T18:03:00.609Z,80.89
2023-02-06T18:05:28.350Z,80.73
2023-02-06T18:07:55.960Z,81.33
2023-02-06T18:10:25.494Z,81.09
2023-02-06T18:12:53.240Z,81.18
2023-02-06T18:15:21.397Z,81.07
2023-02-06T18:17:49.202Z,81.28
2023-02-06T18:20:17.490Z,81.46
2023-02-06T18:22:45.452Z,81.57
2023-02-06T18:25:14.970Z,81.89
2023-02-06T18:27:45.867Z,81.69
2023-02-06T18:30:15.451Z,81.85
2023-02-06T18:32:43.552Z,82.36
2023-02-06T18:35:11.462Z,82.03
2023-02-06T18:37:39.029Z,82.23
2023-02-06T18:40:06.962Z,82.28
2023-02-06T18:42:54.232Z,82.66
2023-02-06T18:45:24.516Z,82.25
2023-02-06T18:47:52.601Z,82.88
2023-02-06T18:50:22.103Z,82.49
2023-02-06T18:52:50.487Z,82.73
2023-02-06T18:55:18.560Z,82.35
2023-02-06T18:57:46.654Z,83.36
2023-02-06T19:00:17.045Z,82.89
2023-02-06T19:02:44.739Z,82.80
2023-02-06T19:05:12.838Z,83.31
2023-02-06T19:07:40.556Z,82.94
2023-02-06T19:10:10.507Z,83.24
2023-02-06T19:12:39.242Z,83.05
2023-02-06T19:15:07.291Z,83.35
2023-02-06T19:17:35.478Z,83.10
2023-02-06T19:20:04.075Z,83.38
2023-02-06T19:22:37.820Z,83.11
2023-02-06T19:25:10.231Z,83.19
2023-02-06T19:27:38.910Z,83.11
2023-02-06T19:30:10.547Z,83.32
2023-02-06T19:32:38.223Z,83.41
2023-02-06T19:35:06.549Z,83.12
2023-02-06T19:37:34.727Z,83.35
2023-02-06T19:40:02.318Z,83.20
2023-02-06T19:42:29.957Z,83.26
2023-02-06T19:44:57.603Z,82.87
2023-02-06T19:47:25.233Z,82.97
2023-02-06T19:49:53.067Z,83.54
2023-02-06T19:52:21.087Z,83.14
2023-02-06T19:54:48.676Z,83.26
2023-02-06T19:57:16.287Z,82.67
2023-02-06T19:59:43.823Z,83.10
2023-02-06T20:02:15.155Z,82.60
2023-02-06T20:04:43.078Z,82.71
2023-02-06T20:07:10.799Z,83.05
2023-02-06T20:09:41.963Z,82.77
2023-02-06T20:12:12.582Z,82.78
2023-02-06T20:14:40.244Z,82.72
2023-02-06T20:17:08.457Z,82.57
2023-02-06T20:19:36.467Z,82.58
2023-02-06T20:22:04.972Z,82.19
2023-02-06T20:24:33.695Z,82.55
2023-02-06T20:27:05.785Z,82.05
2023-02-06T20:29:36.619Z,82.25
2023-02-06T20:32:05.659Z,82.14
2023-02-06T20:34:34.029Z,82.32
2023-02-06T20:37:01.673Z,82.57
2023-02-06T20:39:31.098Z,82.02
2023-02-06T20:41:59.183Z,82.08
2023-02-06T20:44:27.460Z,82.16
2023-02-06T20:46:55.101Z,82.17
2023-02-06T20:49:26.097Z,82.52
2023-02-06T20:51:54.264Z,82.23
2023-02-06T20:54:22.597Z,82.06
2023-02-06T20:56:50.231Z,82.03
2023-02-06T20:59:19.838Z,82.19
2023-02-06T21:01:48.033Z,82.80
2023-02-06T21:04:16.729Z,82.24
2023-02-06T21:06:44.581Z,82.63
2023-02-06T21:09:12.541Z,82.14
2023-02-06T21:11:44.327Z,82.65
2023-02-06T21:14:12.820Z,82.61
2023-02-06T21:16:41.342Z,82.47
2023-02-06T21:19:11.531Z,82.78
2023-02-06T21:21:39.654Z,82.41
2023-02-06T21:24:08.874Z,82.70
2023-02-06T21:26:37.023Z,82.72
2023-02-06T21:29:07.777Z,82.78
2023-02-06T21:31:38.556Z,82.56
2023-02-06T21:34:13.714Z,83.30
2023-02-06T21:36:42.289Z,82.67
2023-02-06T21:39:14.486Z,83.42
2023-02-06T21:41:42.241Z,83.68
2023-02-06T21:44:09.789Z,82.87
2023-02-06T21:46:37.566Z,82.65
2023-02-06T21:49:06.516Z,82.75
2023-02-06T21:51:34.469Z,83.22
2023-02-06T21:54:02.218Z,82.77
2023-02-06T21:56:31.090Z,82.55
2023-02-06T21:58:58.754Z,82.93
2023-02-06T22:01:29.259Z,83.42
2023-02-06T22:03:58.549Z,82.93
2023-02-06T22:06:27.171Z,83.16
2023-02-06T22:08:57.041Z,83.18
2023-02-06T22:11:26.189Z,83.12
2023-02-06T22:13:58.401Z,83.06
2023-02-06T22:16:26.893Z,83.23
2023-02-06T22:18:55.720Z,83.74
2023-02-06T22:21:26.290Z,83.60
2023-02-06T22:23:57.692Z,83.63
2023-02-06T22:26:25.832Z,83.12
2023-02-06T22:28:53.819Z,83.14
2023-02-06T22:31:27.553Z,83.77
2023-02-06T22:33:55.641Z,83.46
2023-02-06T22:36:25.378Z,83.67
2023-02-06T22:39:14.368Z,84.00
2023-02-06T22:41:44.277Z,83.71
2023-02-06T22:44:16.522Z,84.04
2023-02-06T22:46:47.188Z,84.01
2023-02-06T22:49:15.035Z,84.03
2023-02-06T22:51:42.994Z,83.57
2023-02-06T22:54:10.754Z,84.41
2023-02-06T22:56:41.124Z,84.42
2023-02-06T22:59:17.333Z,84.45
2023-02-06T23:01:47.955Z,83.77
2023-02-06T23:04:21.545Z,84.84
2023-02-06T23:06:50.735Z,84.43
2023-02-06T23:09:24.494Z,84.79
2023-02-06T23:11:52.943Z,84.19
2023-02-06T23:14:21.237Z,84.82
2023-02-06T23:16:48.871Z,84.21
2023-02-06T23:19:17.293Z,84.57
2023-02-06T23:21:47.747Z,85.03
2023-02-06T23:24:16.033Z,84.46
2023-02-06T23:26:46.088Z,84.93
2023-02-06T23:29:18.776Z,85.23
2023-02-06T23:31:47.829Z,85.08
2023-02-06T23:34:17.301Z,84.87
2023-02-06T23:36:46.165Z,84.96
2023-02-06T23:39:13.759Z,84.92
2023-02-06T23:41:41.527Z,84.71
2023-02-06T23:44:10.703Z,84.88
2023-02-06T23:46:39.817Z,84.85
2023-02-06T23:49:08.475Z,85.24
2023-02-06T23:51:38.053Z,85.12
2023-02-06T23:54:07.355Z,84.74
2023-02-06T23:56:35.340Z,85.14
2023-02-06T23:59:04.235Z,84.96
